Time;durP1;ratioP1;P1;durP2;ratioP2;P2;SDS_P1;SDS_P2;PMS_P1;PMS_P2;Temp;Humidity;BMP_temperature;BMP_pressure;BME280_temperature;BME280_humidity;BME280_pressure;Samples;Min_cycle;Max_cycle;Signal;HPM_P1;HPM_P2
2020/12/08 00:02:01;;;;;;;40.97;27.30;;;;;;;-0.14;64.73;99855.59;124626;1095;104519;-78
2020/12/08 00:04:30;;;;;;;33.60;21.20;;;;;;;-0.15;64.66;99867.04;124650;1095;104676;-79
2020/12/08 00:06:58;;;;;;;22.67;15.17;;;;;;;-0.17;64.52;99858.42;124767;1095;104526;-76
2020/12/08 00:09:26;;;;;;;21.23;14.90;;;;;;;-0.12;64.77;99864.20;124650;1096;104634;-76
2020/12/08 00:11:54;;;;;;;19.90;12.07;;;;;;;-0.12;64.61;99868.62;124623;1095;104547;-75
2020/12/08 00:14:23;;;;;;;22.50;14.50;;;;;;;-0.13;64.60;99866.95;124654;1095;104629;-76
2020/12/08 00:16:51;;;;;;;20.93;12.40;;;;;;;-0.12;64.19;99860.75;124589;1095;104586;-75
2020/12/08 00:19:19;;;;;;;21.20;12.97;;;;;;;-0.15;64.52;99860.95;124585;1096;104602;-77
2020/12/08 00:21:48;;;;;;;21.43;12.33;;;;;;;-0.13;64.28;99862.54;124668;1095;104520;-77
2020/12/08 00:24:16;;;;;;;21.17;12.47;;;;;;;-0.11;64.75;99865.91;124655;1095;104656;-79
2020/12/08 00:26:45;;;;;;;20.67;12.77;;;;;;;-0.13;64.57;99864.33;124641;1095;104593;-78
2020/12/08 00:29:13;;;;;;;20.57;12.13;;;;;;;-0.13;64.41;99867.78;124602;1095;104874;-78
2020/12/08 00:31:42;;;;;;;22.80;12.75;;;;;;;-0.11;64.53;99868.53;124644;1095;104563;-77
2020/12/08 00:34:10;;;;;;;19.87;11.10;;;;;;;-0.11;64.54;99865.91;124646;1095;104701;-76
2020/12/08 00:36:38;;;;;;;27.77;17.13;;;;;;;-0.10;64.78;99867.58;124656;1095;104622;-75
2020/12/08 00:39:07;;;;;;;40.15;27.60;;;;;;;-0.08;64.11;99855.24;124660;1095;104615;-77
2020/12/08 00:41:35;;;;;;;23.53;15.83;;;;;;;-0.10;64.16;99854.47;124657;1095;104618;-76
2020/12/08 00:44:04;;;;;;;22.33;13.53;;;;;;;-0.09;63.88;99868.44;124640;1095;104496;-76
2020/12/08 00:46:32;;;;;;;18.80;11.30;;;;;;;-0.11;64.00;99858.04;124647;1095;104519;-76
2020/12/08 00:49:01;;;;;;;21.43;12.47;;;;;;;-0.09;64.46;99852.70;124696;1095;104513;-74
2020/12/08 00:51:30;;;;;;;23.03;14.57;;;;;;;-0.09;64.47;99853.54;124680;1095;104596;-74
2020/12/08 00:53:58;;;;;;;26.40;14.27;;;;;;;-0.11;63.85;99862.45;124769;1095;104669;-75
2020/12/08 00:56:29;;;;;;;20.50;12.77;;;;;;;-0.11;64.15;99868.53;124631;1095;104622;-73
2020/12/08 00:58:58;;;;;;;19.05;11.45;;;;;;;-0.09;63.91;99869.28;124614;1095;104596;-74
2020/12/08 01:01:26;;;;;;;18.30;12.13;;;;;;;-0.08;64.06;99877.98;124631;1095;104574;-74
2020/12/08 01:03:55;;;;;;;18.93;12.07;;;;;;;-0.07;64.42;99867.41;124650;1095;104826;-73
2020/12/08 01:06:26;;;;;;;16.77;9.60;;;;;;;-0.11;64.24;99870.32;124636;1095;104586;-72
2020/12/08 01:08:54;;;;;;;18.50;10.70;;;;;;;-0.13;63.68;99874.82;124351;1097;104535;-73
2020/12/08 01:11:22;;;;;;;16.60;9.63;;;;;;;-0.16;63.89;99875.83;124351;1097;104602;-73
2020/12/08 01:13:51;;;;;;;15.43;9.30;;;;;;;-0.15;64.26;99888.02;124645;1095;104906;-73
2020/12/08 01:16:25;;;;;;;13.72;8.55;;;;;;;-0.15;63.69;99880.15;124666;1095;104611;-73
2020/12/08 01:18:57;;;;;;;15.90;8.93;;;;;;;-0.15;64.38;99880.15;124603;1095;104510;-74
2020/12/08 01:21:26;;;;;;;14.57;9.43;;;;;;;-0.10;64.16;99874.61;124638;1095;104599;-75
2020/12/08 01:23:55;;;;;;;17.67;10.43;;;;;;;-0.09;64.14;99885.02;124671;1095;104657;-74
2020/12/08 01:26:24;;;;;;;16.87;10.70;;;;;;;-0.12;64.01;99874.70;124638;1095;104640;-77
2020/12/08 01:28:53;;;;;;;15.47;8.30;;;;;;;-0.09;63.61;99873.69;124668;1095;104532;-76
2020/12/08 01:31:31;;;;;;;15.40;8.23;;;;;;;-0.13;64.10;99875.66;124621;1095;104615;-75
2020/12/08 01:33:59;;;;;;;19.10;12.30;;;;;;;-0.14;64.07;99873.95;124445;1097;104616;-77
2020/12/08 01:36:28;;;;;;;18.30;11.00;;;;;;;-0.13;64.22;99873.03;124360;1097;104623;-76
2020/12/08 01:38:57;;;;;;;15.77;8.73;;;;;;;-0.13;64.00;99880.89;124586;1095;104490;-75
2020/12/08 01:41:25;;;;;;;14.00;8.23;;;;;;;-0.10;64.33;99879.86;124636;1095;104873;-75
2020/12/08 01:43:55;;;;;;;14.50;8.83;;;;;;;-0.11;64.21;99880.81;124691;1095;104640;-76
2020/12/08 01:46:26;;;;;;;15.77;9.40;;;;;;;-0.10;63.65;99887.72;124645;1095;104615;-77
2020/12/08 01:48:57;;;;;;;15.07;8.40;;;;;;;-0.08;63.76;99894.58;124673;1095;104525;-75
2020/12/08 01:51:26;;;;;;;14.63;8.70;;;;;;;-0.07;63.86;99893.63;124374;1097;104565;-76
2020/12/08 01:53:55;;;;;;;14.77;8.13;;;;;;;-0.03;64.42;99889.04;124716;1095;104720;-77
2020/12/08 01:56:31;;;;;;;13.70;8.73;;;;;;;0.01;64.20;99887.08;124598;1095;104713;-76
2020/12/08 01:59:04;;;;;;;13.77;7.70;;;;;;;0.01;63.87;99882.66;124632;1095;104596;-76
2020/12/08 02:01:33;;;;;;;13.57;7.73;;;;;;;-0.02;64.00;99886.33;124644;1095;104512;-75
2020/12/08 02:04:06;;;;;;;13.93;7.67;;;;;;;-0.04;64.26;99896.08;124653;1095;104659;-76
2020/12/08 02:06:35;;;;;;;15.13;9.00;;;;;;;-0.02;64.11;99886.33;124654;1095;104568;-75
2020/12/08 02:09:04;;;;;;;16.50;8.70;;;;;;;-0.02;64.03;99895.95;124618;1095;104710;-74
2020/12/08 02:11:35;;;;;;;13.90;8.13;;;;;;;-0.02;64.09;99888.95;124753;1095;104513;-77
2020/12/08 02:14:05;;;;;;;13.97;8.30;;;;;;;-0.04;63.94;99879.47;124655;1095;104638;-76
2020/12/08 02:16:33;;;;;;;12.67;7.63;;;;;;;-0.04;64.15;99882.09;124351;1097;104598;-76
2020/12/08 02:19:01;;;;;;;13.87;8.43;;;;;;;0.01;64.14;99880.04;124604;1095;104608;-75
2020/12/08 02:21:33;;;;;;;13.63;7.90;;;;;;;0.01;64.05;99880.04;124578;1095;104647;-78
2020/12/08 02:24:08;;;;;;;14.70;8.80;;;;;;;0.01;64.29;99880.04;124659;1095;104723;-79
2020/12/08 02:26:37;;;;;;;16.50;7.67;;;;;;;0.05;64.01;99875.45;124682;1095;104602;-78
2020/12/08 02:29:07;;;;;;;14.80;7.30;;;;;;;0.06;64.23;99871.87;124627;1095;104525;-77
2020/12/08 02:31:37;;;;;;;12.83;7.67;;;;;;;0.07;64.19;99861.29;124424;1097;104580;-78
2020/12/08 02:34:07;;;;;;;12.50;6.87;;;;;;;0.06;64.04;99861.38;124649;1095;104689;-77
2020/12/08 02:36:36;;;;;;;14.57;8.40;;;;;;;0.04;63.93;99858.88;124766;1095;104677;-75
2020/12/08 02:39:05;;;;;;;12.87;7.60;;;;;;;0.03;64.02;99859.80;124609;1095;104500;-77
2020/12/08 02:41:34;;;;;;;12.20;7.00;;;;;;;-0.01;63.79;99858.31;124609;1095;104970;-76
2020/12/08 02:44:03;;;;;;;13.70;7.67;;;;;;;-0.04;63.93;99861.98;124644;1095;104904;-76
2020/12/08 02:46:34;;;;;;;12.83;7.27;;;;;;;-0.09;63.61;99861.41;124630;1095;104517;-76
2020/12/08 02:49:03;;;;;;;14.17;7.87;;;;;;;-0.07;63.90;99869.19;124624;1095;104519;-74
2020/12/08 02:51:32;;;;;;;14.45;7.90;;;;;;;-0.06;63.97;99858.61;124634;1095;104531;-76
2020/12/08 02:54:04;;;;;;;13.53;7.50;;;;;;;-0.07;63.79;99856.91;124691;1097;104739;-77
2020/12/08 02:56:33;;;;;;;13.63;7.93;;;;;;;-0.09;63.96;99864.03;124646;1095;104575;-76
2020/12/08 02:59:06;;;;;;;14.13;7.30;;;;;;;-0.13;63.43;99867.78;124624;1095;104532;-76
2020/12/08 03:01:36;;;;;;;14.50;8.30;;;;;;;-0.14;63.98;99876.58;124648;1095;104593;-78
2020/12/08 03:04:05;;;;;;;12.00;7.23;;;;;;;-0.11;63.67;99871.16;124698;1096;104746;-78
2020/12/08 03:06:35;;;;;;;12.13;6.80;;;;;;;-0.06;63.91;99868.23;124579;1095;104571;-76
2020/12/08 03:09:05;;;;;;;12.93;7.70;;;;;;;-0.02;64.04;99867.97;124600;1095;104599;-76
2020/12/08 03:11:34;;;;;;;15.50;9.23;;;;;;;-0.01;63.58;99881.92;124617;1095;104516;-76
2020/12/08 03:14:09;;;;;;;14.40;7.50;;;;;;;-0.06;63.48;99863.86;124670;1096;104640;-77
2020/12/08 03:16:38;;;;;;;14.67;7.83;;;;;;;-0.10;63.43;99867.58;124639;1095;104525;-75
2020/12/08 03:19:07;;;;;;;15.73;7.57;;;;;;;-0.11;63.85;99865.08;124346;1096;104913;-75
2020/12/08 03:21:36;;;;;;;13.60;7.73;;;;;;;-0.12;63.71;99864.20;124620;1095;104542;-75
2020/12/08 03:24:08;;;;;;;14.20;7.63;;;;;;;-0.07;63.65;99863.94;124655;1097;104646;-76
2020/12/08 03:26:36;;;;;;;14.60;7.63;;;;;;;-0.08;63.58;99870.98;124370;1095;104582;-77
2020/12/08 03:29:05;;;;;;;12.93;7.47;;;;;;;-0.03;63.58;99868.89;124390;1097;104548;-77
2020/12/08 03:31:33;;;;;;;11.65;7.10;;;;;;;0.02;63.37;99870.38;124407;1097;104580;-77
2020/12/08 03:34:03;;;;;;;13.40;7.30;;;;;;;-0.03;63.63;99884.63;124636;1095;104550;-78
2020/12/08 03:36:33;;;;;;;13.17;7.80;;;;;;;0.01;63.14;99884.45;124633;1095;104561;-75
2020/12/08 03:39:03;;;;;;;13.53;7.40;;;;;;;0.04;63.55;99894.73;124601;1095;104496;-77
2020/12/08 03:41:35;;;;;;;15.35;7.90;;;;;;;0.04;63.51;99887.73;124642;1095;104599;-76
2020/12/08 03:44:06;;;;;;;16.45;8.50;;;;;;;0.03;63.45;99882.58;124684;1096;104528;-75
2020/12/08 03:46:35;;;;;;;13.70;7.13;;;;;;;0.04;63.33;99885.11;124622;1095;104523;-77
2020/12/08 03:49:03;;;;;;;12.80;7.10;;;;;;;0.06;63.14;99893.72;124596;1095;104487;-76
2020/12/08 03:51:32;;;;;;;13.70;7.90;;;;;;;0.04;63.42;99886.87;124671;1095;104535;-75
2020/12/08 03:54:06;;;;;;;11.53;6.07;;;;;;;0.03;62.86;99885.20;124490;1095;104531;-76
2020/12/08 03:56:38;;;;;;;14.27;7.53;;;;;;;0.03;63.67;99895.69;124638;1095;104551;-76
2020/12/08 03:59:08;;;;;;;12.80;7.17;;;;;;;-0.01;63.13;99884.54;124579;1095;104598;-75
2020/12/08 04:01:36;;;;;;;12.67;7.30;;;;;;;-0.01;63.04;99890.62;124390;1095;104916;-75
2020/12/08 04:04:05;;;;;;;14.27;7.63;;;;;;;-0.04;63.45;99880.34;124756;1095;104679;-75
2020/12/08 04:06:34;;;;;;;14.00;7.63;;;;;;;-0.02;63.10;99878.46;124430;1097;104605;-76
2020/12/08 04:09:02;;;;;;;18.53;11.43;;;;;;;0.01;63.46;99881.83;124630;1095;104532;-74
2020/12/08 04:11:35;;;;;;;30.40;19.57;;;;;;;0.07;63.03;99891.94;124673;1095;104711;-74
2020/12/08 04:14:04;;;;;;;24.10;13.93;;;;;;;0.07;62.94;99884.06;124738;1095;104650;-74
2020/12/08 04:16:33;;;;;;;55.80;31.40;;;;;;;0.01;63.52;99879.20;124664;1095;104512;-75
2020/12/08 04:19:03;;;;;;;44.63;26.37;;;;;;;0.01;63.18;99874.80;124372;1095;104993;-72
2020/12/08 04:21:33;;;;;;;37.23;20.40;;;;;;;-0.05;64.01;99881.26;124474;1095;104654;-76
2020/12/08 04:24:13;;;;;;;45.37;27.93;;;;;;;-0.07;64.48;99883.14;124594;1095;104528;-77
2020/12/08 04:26:46;;;;;;;40.80;23.43;;;;;;;-0.10;64.92;99871.98;124681;1095;104575;-75
2020/12/08 04:29:17;;;;;;;31.40;17.37;;;;;;;-0.20;64.73;99883.03;124511;1095;105189;-76
2020/12/08 04:31:49;;;;;;;67.50;42.23;;;;;;;-0.24;65.33;99886.78;124594;1095;104599;-78
2020/12/08 04:34:18;;;;;;;169.25;110.15;;;;;;;-0.25;64.79;99887.73;124610;1095;104672;-75
2020/12/08 04:36:47;;;;;;;56.77;31.93;;;;;;;-0.24;65.79;99886.78;124358;1095;104606;-76
2020/12/08 04:39:15;;;;;;;57.63;30.60;;;;;;;-0.26;65.37;99886.03;124383;1097;104896;-75
2020/12/08 04:41:43;;;;;;;167.30;87.55;;;;;;;-0.25;65.48;99889.49;124620;1095;104580;-76
2020/12/08 04:44:12;;;;;;;76.67;39.27;;;;;;;-0.24;64.84;99886.78;124391;1095;104487;-76
2020/12/08 04:46:41;;;;;;;58.33;32.83;;;;;;;-0.23;64.97;99878.00;124576;1095;104983;-74
2020/12/08 04:49:10;;;;;;;46.87;25.43;;;;;;;-0.22;64.91;99894.56;124630;1095;104522;-76
2020/12/08 04:51:39;;;;;;;57.27;33.30;;;;;;;-0.24;65.36;99897.27;124586;1095;104593;-76
2020/12/08 04:54:08;;;;;;;34.33;19.33;;;;;;;-0.24;64.90;99885.95;124618;1095;104669;-77
2020/12/08 04:56:37;;;;;;;39.23;24.50;;;;;;;-0.22;65.05;99891.94;124611;1095;104612;-73
2020/12/08 04:59:08;;;;;;;48.37;29.73;;;;;;;-0.16;64.42;99888.10;124579;1095;104567;-75
2020/12/08 05:01:36;;;;;;;28.47;14.73;;;;;;;-0.17;64.42;99882.02;124332;1095;104605;-76
2020/12/08 05:04:05;;;;;;;33.87;19.43;;;;;;;-0.20;64.42;99896.14;124593;1095;104563;-79
2020/12/08 05:06:33;;;;;;;40.80;24.10;;;;;;;-0.21;64.52;99896.27;124545;1095;104609;-74
2020/12/08 05:09:06;;;;;;;41.53;23.73;;;;;;;-0.22;64.60;99870.97;124550;1095;104593;-77
2020/12/08 05:11:36;;;;;;;51.93;30.90;;;;;;;-0.23;63.99;99887.66;124548;1095;104513;-74
2020/12/08 05:14:05;;;;;;;41.33;23.97;;;;;;;-0.22;64.48;99881.45;124658;1095;104666;-74
2020/12/08 05:16:34;;;;;;;36.73;20.33;;;;;;;-0.23;64.62;99891.11;124660;1095;104552;-76
2020/12/08 05:19:09;;;;;;;28.70;17.03;;;;;;;-0.26;64.83;99885.20;124599;1095;104496;-76
2020/12/08 05:21:48;;;;;;;65.13;38.50;;;;;;;-0.25;64.05;99885.12;124605;1095;104515;-74
2020/12/08 05:24:25;;;;;;;63.60;33.90;;;;;;;-0.23;64.38;99882.41;124701;1095;104682;-76
2020/12/08 05:26:58;;;;;;;53.50;32.07;;;;;;;-0.25;63.81;99884.25;124632;1095;104599;-75
2020/12/08 05:29:27;;;;;;;43.25;25.85;;;;;;;-0.21;64.21;99886.61;124630;1095;104602;-76
2020/12/08 05:31:55;;;;;;;56.53;33.90;;;;;;;-0.16;63.97;99888.94;124585;1096;104567;-73
2020/12/08 05:34:25;;;;;;;59.63;37.43;;;;;;;-0.16;64.18;99888.94;124655;1095;104584;-74
2020/12/08 05:36:54;;;;;;;31.55;18.85;;;;;;;-0.14;64.02;99887.06;124695;1090;105088;-75
2020/12/08 05:39:23;;;;;;;74.33;48.43;;;;;;;-0.10;64.35;99896.42;124689;1095;104941;-76
2020/12/08 05:41:52;;;;;;;52.90;32.80;;;;;;;-0.03;64.41;99889.04;124615;1095;104574;-75
2020/12/08 05:44:23;;;;;;;47.83;27.40;;;;;;;-0.02;64.24;99906.45;124718;1095;104790;-77
2020/12/08 05:46:53;;;;;;;36.47;21.53;;;;;;;-0.05;64.40;99890.92;124621;1095;104512;-74
2020/12/08 05:49:22;;;;;;;24.97;13.70;;;;;;;-0.09;64.06;99890.26;124623;1095;104629;-76
2020/12/08 05:51:51;;;;;;;25.00;13.73;;;;;;;-0.10;63.70;99895.59;124579;1095;104602;-76
2020/12/08 05:54:21;;;;;;;36.70;19.87;;;;;;;-0.09;64.04;99892.88;124644;1095;104656;-77
2020/12/08 05:56:51;;;;;;;30.80;15.90;;;;;;;-0.08;63.98;99888.47;124653;1090;104522;-76
2020/12/08 05:59:28;;;;;;;40.40;23.50;;;;;;;-0.05;64.29;99894.37;124596;1095;104488;-77
2020/12/08 06:01:57;;;;;;;31.13;16.30;;;;;;;-0.02;63.99;99893.33;124589;1095;104509;-74
2020/12/08 06:04:25;;;;;;;34.70;19.53;;;;;;;-0.02;64.17;99904.69;124639;1095;104803;-75
2020/12/08 06:06:56;;;;;;;37.90;20.60;;;;;;;-0.01;64.10;99895.86;124602;1095;104599;-75
2020/12/08 06:09:26;;;;;;;25.87;13.73;;;;;;;-0.02;64.26;99896.82;124564;1095;104499;-75
2020/12/08 06:11:54;;;;;;;26.83;16.13;;;;;;;-0.04;63.90;99903.94;124798;1095;104571;-74
2020/12/08 06:14:34;;;;;;;33.23;20.50;;;;;;;-0.05;63.80;99899.62;124642;1095;104634;-75
2020/12/08 06:17:05;;;;;;;30.33;19.83;;;;;;;-0.09;63.69;99894.67;124624;1095;104598;-76
2020/12/08 06:19:34;;;;;;;62.27;36.40;;;;;;;-0.09;63.73;99890.26;124625;1095;104596;-76
2020/12/08 06:22:12;;;;;;;360.80;179.65;;;;;;;-0.08;63.58;99891.95;124603;1095;104565;-75
2020/12/08 06:24:51;;;;;;;222.33;94.17;;;;;;;-0.07;64.22;99893.63;124659;1095;104624;-74
2020/12/08 06:27:22;;;;;;;293.80;130.70;;;;;;;-0.05;63.86;99894.37;124643;1095;104886;-77
2020/12/08 06:29:55;;;;;;;250.90;126.43;;;;;;;-0.04;63.74;99900.45;124608;1095;104510;-74
2020/12/08 06:32:28;;;;;;;234.00;129.20;;;;;;;-0.03;64.05;99915.27;124644;1095;104487;-75
2020/12/08 06:35:08;;;;;;;180.87;102.33;;;;;;;-0.02;63.87;99920.42;124674;1095;104605;-74
2020/12/08 06:37:42;;;;;;;76.73;44.90;;;;;;;-0.01;63.82;99918.64;124667;1095;104595;-75
2020/12/08 06:40:12;;;;;;;81.83;47.23;;;;;;;0.01;63.94;99927.25;124619;1095;104535;-75
2020/12/08 06:42:41;;;;;;;124.13;80.00;;;;;;;0.06;63.42;99932.20;124594;1095;104586;-75
2020/12/08 06:45:12;;;;;;;104.57;66.50;;;;;;;0.07;63.47;99929.50;124641;1095;104637;-78
2020/12/08 06:47:40;;;;;;;37.07;23.43;;;;;;;0.10;63.35;99931.11;124594;1095;104522;-74
2020/12/08 06:50:22;;;;;;;37.43;24.73;;;;;;;0.08;63.64;99928.57;124600;1095;104592;-74
2020/12/08 06:52:58;;;;;;;38.65;24.18;;;;;;;0.13;64.03;99926.48;124824;1090;104914;-75
2020/12/08 06:55:27;;;;;;;32.60;20.80;;;;;;;0.15;63.35;99935.10;124722;1090;104563;-76
2020/12/08 06:58:04;;;;;;;51.10;36.87;;;;;;;0.15;63.95;99940.35;124648;1095;104596;-75
2020/12/08 07:00:33;;;;;;;38.80;27.07;;;;;;;0.20;63.87;99942.71;124587;1095;104509;-77
2020/12/08 07:03:02;;;;;;;30.27;18.73;;;;;;;0.21;63.59;99933.89;124568;1096;104500;-75
2020/12/08 07:05:32;;;;;;;25.70;15.30;;;;;;;0.21;63.49;99939.13;124692;1095;104599;-73
2020/12/08 07:08:02;;;;;;;71.03;48.80;;;;;;;0.23;63.33;99936.42;124601;1095;104645;-74
2020/12/08 07:10:30;;;;;;;49.07;31.33;;;;;;;0.23;63.55;99942.50;124517;1095;104538;-73
2020/12/08 07:12:58;;;;;;;40.95;22.30;;;;;;;0.25;63.60;99939.80;124586;1095;104551;-75
2020/12/08 07:15:27;;;;;;;66.50;43.47;;;;;;;0.27;63.66;99937.91;124665;1090;104589;-75
2020/12/08 07:18:03;;;;;;;47.60;27.83;;;;;;;0.32;63.53;99935.86;124641;1089;104535;-74
2020/12/08 07:20:32;;;;;;;30.17;17.73;;;;;;;0.30;63.12;99933.32;124730;1090;104948;-74
2020/12/08 07:23:03;;;;;;;29.17;16.60;;;;;;;0.32;64.03;99939.31;124614;1090;104987;-75
2020/12/08 07:25:33;;;;;;;22.50;12.63;;;;;;;0.31;63.83;99935.02;124691;1090;104573;-78
2020/12/08 07:28:02;;;;;;;22.53;13.13;;;;;;;0.27;64.23;99933.53;124624;1095;104558;-74
2020/12/08 07:30:32;;;;;;;39.45;26.95;;;;;;;0.28;64.05;99939.61;124634;1095;104506;-74
2020/12/08 07:33:11;;;;;;;31.07;19.80;;;;;;;0.26;63.87;99944.95;124750;1090;104626;-75
2020/12/08 07:35:44;;;;;;;25.10;15.97;;;;;;;0.24;63.60;99952.08;124667;1095;104643;-76
2020/12/08 07:38:13;;;;;;;27.63;18.00;;;;;;;0.20;63.19;99950.59;124649;1095;104550;-76
2020/12/08 07:40:42;;;;;;;30.80;20.05;;;;;;;0.24;63.53;99952.08;124560;1095;104602;-75
2020/12/08 07:43:10;;;;;;;37.80;25.60;;;;;;;0.28;63.74;99955.36;124552;1097;104599;-75
2020/12/08 07:45:44;;;;;;;50.47;35.10;;;;;;;0.33;63.61;99950.67;124643;1095;104666;-75
2020/12/08 07:48:17;;;;;;;40.10;23.53;;;;;;;0.35;63.45;99949.63;124554;1095;104739;-75
2020/12/08 07:50:46;;;;;;;37.47;24.03;;;;;;;0.28;63.50;99953.56;124678;1090;104567;-73
2020/12/08 07:53:15;;;;;;;29.07;16.80;;;;;;;0.30;63.27;99953.48;124597;1096;104522;-76
2020/12/08 07:55:45;;;;;;;22.53;13.43;;;;;;;0.28;63.35;99953.56;124636;1095;104640;-74
2020/12/08 07:58:14;;;;;;;21.50;12.80;;;;;;;0.25;63.21;99945.91;124597;1090;104599;-74
2020/12/08 08:00:42;;;;;;;37.80;25.97;;;;;;;0.24;63.36;99959.95;124712;1095;104519;-75
2020/12/08 08:03:11;;;;;;;24.87;14.50;;;;;;;0.26;63.65;99962.48;124697;1095;104531;-75
2020/12/08 08:05:40;;;;;;;33.17;21.77;;;;;;;0.31;63.27;99961.27;124660;1095;104631;-75
2020/12/08 08:08:08;;;;;;;22.97;14.20;;;;;;;0.33;63.36;99954.14;124730;1095;104593;-76
2020/12/08 08:10:37;;;;;;;25.47;17.07;;;;;;;0.33;63.15;99956.77;124649;1097;104970;-74
2020/12/08 08:13:05;;;;;;;20.67;13.97;;;;;;;0.37;63.55;99954.80;124692;1095;104566;-74
2020/12/08 08:15:34;;;;;;;22.60;15.80;;;;;;;0.43;63.24;99958.82;124625;1095;104583;-77
2020/12/08 08:18:02;;;;;;;18.35;11.10;;;;;;;0.47;63.28;99961.15;124667;1095;105067;-74
2020/12/08 08:20:31;;;;;;;17.27;9.90;;;;;;;0.50;63.23;99967.98;124635;1095;104598;-73
2020/12/08 08:23:00;;;;;;;21.30;13.93;;;;;;;0.52;63.19;99972.22;124676;1095;105154;-73
2020/12/08 08:25:28;;;;;;;18.10;10.90;;;;;;;0.53;63.11;99973.05;124679;1095;104605;-73
2020/12/08 08:27:57;;;;;;;19.77;13.50;;;;;;;0.60;63.33;99976.98;124677;1095;104599;-73
2020/12/08 08:30:25;;;;;;;19.77;13.03;;;;;;;0.60;62.77;99974.36;124654;1090;104515;-73
2020/12/08 08:32:54;;;;;;;17.87;10.80;;;;;;;0.61;62.95;99981.28;124630;1090;104491;-74
2020/12/08 08:35:23;;;;;;;826.00;391.23;;;;;;;0.54;62.21;99972.95;124668;1095;104673;-75
2020/12/08 08:37:51;;;;;;;951.55;521.25;;;;;;;0.55;63.05;99971.16;124659;1095;104513;-75
2020/12/08 08:40:20;;;;;;;774.00;367.73;;;;;;;0.59;62.76;99977.91;124646;1090;104535;-74
2020/12/08 08:42:48;;;;;;;542.77;246.07;;;;;;;0.63;62.75;99979.40;124620;1096;104595;-75
2020/12/08 08:45:17;;;;;;;670.13;374.33;;;;;;;0.65;62.36;99977.52;124683;1095;104609;-76
2020/12/08 08:47:45;;;;;;;397.40;168.30;;;;;;;0.65;62.49;99980.14;124681;1095;104717;-74
2020/12/08 08:50:14;;;;;;;438.43;192.80;;;;;;;0.63;62.38;99984.65;124650;1095;104596;-76
2020/12/08 08:52:42;;;;;;;526.25;270.60;;;;;;;0.61;62.96;99980.44;124652;1095;104911;-74
2020/12/08 08:55:11;;;;;;;589.67;315.30;;;;;;;0.64;62.71;99985.52;124723;1095;104586;-76
2020/12/08 08:57:40;;;;;;;382.50;155.33;;;;;;;0.66;62.89;99991.52;124718;1095;104594;-74
2020/12/08 09:00:11;;;;;;;589.50;334.95;;;;;;;0.65;62.72;99997.69;124660;1095;104615;-73
2020/12/08 09:02:40;;;;;;;324.63;138.47;;;;;;;0.63;62.16;100003.03;124721;1096;104593;-73
2020/12/08 09:05:09;;;;;;;382.33;179.97;;;;;;;0.58;62.88;99990.20;124717;1095;104683;-75
2020/12/08 09:07:38;;;;;;;432.60;241.27;;;;;;;0.57;62.64;100004.25;124579;1095;104673;-72
2020/12/08 09:10:07;;;;;;;323.05;138.65;;;;;;;0.56;62.56;100001.75;124609;1095;104516;-72
2020/12/08 09:12:35;;;;;;;527.57;293.70;;;;;;;0.58;62.54;100011.20;124607;1095;104510;-73
2020/12/08 09:15:06;;;;;;;162.10;69.20;;;;;;;0.54;62.40;99998.34;124688;1095;104602;-75
2020/12/08 09:17:35;;;;;;;237.23;94.50;;;;;;;0.54;62.56;100000.97;124658;1095;104618;-73
2020/12/08 09:20:04;;;;;;;538.90;249.23;;;;;;;0.49;62.16;100003.06;124712;1095;104602;-74
2020/12/08 09:22:33;;;;;;;510.43;223.63;;;;;;;0.46;62.15;100006.70;124701;1095;104516;-74
2020/12/08 09:25:02;;;;;;;498.50;210.23;;;;;;;0.47;62.48;99989.19;124671;1095;104646;-73
2020/12/08 09:27:30;;;;;;;180.57;60.73;;;;;;;0.46;62.37;99990.11;124648;1095;104610;-73
2020/12/08 09:29:59;;;;;;;250.70;91.90;;;;;;;0.47;62.74;99986.56;124618;1095;104596;-74
2020/12/08 09:32:28;;;;;;;425.33;182.87;;;;;;;0.50;62.64;99981.10;124748;1095;104906;-74
2020/12/08 09:34:57;;;;;;;289.55;114.00;;;;;;;0.53;63.02;99986.17;124722;1095;104660;-74
2020/12/08 09:37:26;;;;;;;247.00;102.00;;;;;;;0.56;62.87;99988.63;124591;1095;104644;-74
2020/12/08 09:39:54;;;;;;;242.47;100.20;;;;;;;0.59;62.87;99993.66;124639;1095;104589;-73
2020/12/08 09:42:23;;;;;;;285.77;134.10;;;;;;;0.64;63.44;99993.39;124739;1095;104650;-75
2020/12/08 09:44:52;;;;;;;215.07;97.97;;;;;;;0.69;63.61;100000.02;124663;1095;104596;-75
2020/12/08 09:47:20;;;;;;;134.63;60.97;;;;;;;0.74;63.16;99997.95;124665;1095;104561;-74
2020/12/08 09:49:49;;;;;;;182.33;89.87;;;;;;;0.73;63.35;99998.04;124594;1095;104552;-74
2020/12/08 09:52:17;;;;;;;93.50;44.30;;;;;;;0.75;63.10;99986.52;124641;1095;104615;-75
2020/12/08 09:54:46;;;;;;;85.30;43.60;;;;;;;0.81;63.23;99989.68;124621;1095;104621;-74
2020/12/08 09:57:14;;;;;;;103.95;60.15;;;;;;;0.80;63.15;99974.88;124726;1095;104567;-76
2020/12/08 09:59:43;;;;;;;70.60;38.30;;;;;;;0.76;62.94;99976.85;124645;1095;104626;-75
2020/12/08 10:02:11;;;;;;;90.75;59.25;;;;;;;0.73;63.65;99988.41;124633;1095;104487;-74
2020/12/08 10:04:40;;;;;;;69.80;44.53;;;;;;;0.75;63.25;99986.52;124610;1095;104605;-74
2020/12/08 10:07:10;;;;;;;81.95;52.00;;;;;;;0.79;63.92;99992.43;124733;1095;104577;-74
2020/12/08 10:09:38;;;;;;;41.25;24.55;;;;;;;0.78;63.56;99985.47;124659;1095;104564;-74
2020/12/08 10:12:07;;;;;;;45.93;28.13;;;;;;;0.80;64.35;99983.59;124648;1095;104522;-75
2020/12/08 10:14:35;;;;;;;54.37;37.97;;;;;;;0.84;64.35;99979.83;124679;1095;104618;-74
2020/12/08 10:17:04;;;;;;;57.63;38.80;;;;;;;0.87;64.36;99969.13;124716;1095;104641;-72
2020/12/08 10:19:33;;;;;;;39.50;26.87;;;;;;;0.90;64.29;99974.17;124667;1095;104595;-74
2020/12/08 10:22:01;;;;;;;33.47;22.33;;;;;;;0.93;64.36;99967.90;124709;1095;104595;-72
2020/12/08 10:24:30;;;;;;;31.93;21.73;;;;;;;0.93;64.20;99987.13;124636;1095;104593;-75
2020/12/08 10:26:58;;;;;;;29.30;19.83;;;;;;;0.93;64.47;99992.38;124731;1095;104585;-75
2020/12/08 10:29:27;;;;;;;34.90;22.20;;;;;;;0.96;65.12;99991.33;124687;1095;104595;-75
2020/12/08 10:31:55;;;;;;;64.17;44.03;;;;;;;0.96;64.86;99978.19;124718;1095;104643;-75
2020/12/08 10:34:24;;;;;;;63.33;42.93;;;;;;;0.92;64.99;99982.80;124723;1096;104590;-75
2020/12/08 10:36:53;;;;;;;67.57;44.03;;;;;;;0.96;65.07;99979.06;124654;1095;104514;-73
2020/12/08 10:39:21;;;;;;;64.27;40.23;;;;;;;1.04;65.03;99985.58;124720;1095;104996;-74
2020/12/08 10:41:50;;;;;;;46.50;29.43;;;;;;;1.13;64.86;99975.31;124626;1095;104595;-74
2020/12/08 10:44:18;;;;;;;50.93;31.23;;;;;;;1.16;64.48;99985.64;124694;1095;104592;-76
2020/12/08 10:46:49;;;;;;;53.87;37.27;;;;;;;1.14;64.53;99982.27;124639;1095;104598;-75
2020/12/08 10:49:17;;;;;;;31.00;18.93;;;;;;;1.21;64.62;99974.81;124630;1095;104484;-74
2020/12/08 10:51:46;;;;;;;20.67;13.50;;;;;;;1.26;64.23;99983.25;124652;1095;104606;-74
2020/12/08 10:54:15;;;;;;;40.17;28.50;;;;;;;1.30;64.98;99982.11;124640;1095;104624;-74
2020/12/08 10:56:43;;;;;;;53.85;32.95;;;;;;;1.38;64.72;99992.95;124772;1090;104627;-74
2020/12/08 10:59:12;;;;;;;33.43;21.57;;;;;;;1.41;64.66;99989.30;124584;1095;104561;-75
2020/12/08 11:01:40;;;;;;;30.27;18.23;;;;;;;1.38;64.26;99994.75;124592;1095;104634;-74
2020/12/08 11:04:09;;;;;;;208.80;130.47;;;;;;;1.34;64.75;99985.37;124599;1095;104628;-71
2020/12/08 11:06:38;;;;;;;100.20;62.17;;;;;;;1.39;63.95;99988.56;124607;1095;104538;-74
2020/12/08 11:09:07;;;;;;;58.73;32.90;;;;;;;1.40;64.35;99987.59;124579;1095;104595;-75
2020/12/08 11:11:35;;;;;;;183.77;100.17;;;;;;;1.39;64.43;99988.56;124562;1095;104564;-73
2020/12/08 11:14:04;;;;;;;89.35;52.20;;;;;;;1.42;63.92;99990.13;124670;1095;104596;-73
2020/12/08 11:16:33;;;;;;;60.53;33.67;;;;;;;1.48;64.62;99987.95;124620;1095;104631;-74